sensor_id;sensor_type;location;lat;lon;timestamp;pressure;altitude;pressure_sealevel;temperature;humidity
73338;BME280;61575;49.908;35.556;2024-03-25T00:00:16;98106.44;;;7.19;75.14
73338;BME280;61575;49.908;35.556;2024-03-25T00:03:17;98101.28;;;7.17;75.08
73338;BME280;61575;49.908;35.556;2024-03-25T00:06:18;98100.16;;;7.12;75.29
73338;BME280;61575;49.908;35.556;2024-03-25T00:09:18;98106.69;;;7.09;75.62
73338;BME280;61575;49.908;35.556;2024-03-25T00:12:21;98095.19;;;7.09;75.75
73338;BME280;61575;49.908;35.556;2024-03-25T00:15:22;98098.50;;;7.11;75.70
73338;BME280;61575;49.908;35.556;2024-03-25T00:18:24;98098.50;;;7.11;75.75
73338;BME280;61575;49.908;35.556;2024-03-25T00:21:25;98090.22;;;7.06;75.95
73338;BME280;61575;49.908;35.556;2024-03-25T00:24:26;98092.41;;;7.02;76.01
73338;BME280;61575;49.908;35.556;2024-03-25T00:27:27;98082.94;;;6.99;76.28
73338;BME280;61575;49.908;35.556;2024-03-25T00:30:30;98089.09;;;7.00;76.24
73338;BME280;61575;49.908;35.556;2024-03-25T00:33:31;98087.63;;;6.97;76.56
73338;BME280;61575;49.908;35.556;2024-03-25T00:36:33;98088.81;;;6.95;76.65
73338;BME280;61575;49.908;35.556;2024-03-25T00:39:34;98076.84;;;6.91;76.95
73338;BME280;61575;49.908;35.556;2024-03-25T00:42:35;98081.72;;;6.87;77.16
73338;BME280;61575;49.908;35.556;2024-03-25T00:45:36;98076.75;;;6.84;77.13
73338;BME280;61575;49.908;35.556;2024-03-25T00:48:37;98081.53;;;6.74;77.85
73338;BME280;61575;49.908;35.556;2024-03-25T00:51:39;98081.16;;;6.77;77.46
73338;BME280;61575;49.908;35.556;2024-03-25T00:54:39;98081.34;;;6.76;77.56
73338;BME280;61575;49.908;35.556;2024-03-25T00:57:40;98072.22;;;6.70;77.75
73338;BME280;61575;49.908;35.556;2024-03-25T01:00:42;98076.06;;;6.67;78.00
73338;BME280;61575;49.908;35.556;2024-03-25T01:03:43;98071.56;;;6.68;78.16
73338;BME280;61575;49.908;35.556;2024-03-25T01:06:44;98067.13;;;6.60;78.51
73338;BME280;61575;49.908;35.556;2024-03-25T01:09:44;98054.16;;;6.57;78.48
73338;BME280;61575;49.908;35.556;2024-03-25T01:12:45;98066.00;;;6.55;78.70
73338;BME280;61575;49.908;35.556;2024-03-25T01:15:46;98061.88;;;6.52;78.84
73338;BME280;61575;49.908;35.556;2024-03-25T01:18:47;98060.22;;;6.51;78.83
73338;BME280;61575;49.908;35.556;2024-03-25T01:21:49;98052.22;;;6.51;78.79
73338;BME280;61575;49.908;35.556;2024-03-25T01:24:50;98054.22;;;6.49;78.83
73338;BME280;61575;49.908;35.556;2024-03-25T01:27:51;98053.09;;;6.44;78.98
73338;BME280;61575;49.908;35.556;2024-03-25T01:30:52;98055.00;;;6.35;79.41
73338;BME280;61575;49.908;35.556;2024-03-25T01:33:53;98057.84;;;6.33;79.18
73338;BME280;61575;49.908;35.556;2024-03-25T01:36:54;98054.06;;;6.28;79.52
73338;BME280;61575;49.908;35.556;2024-03-25T01:39:55;98046.59;;;6.23;79.88
73338;BME280;61575;49.908;35.556;2024-03-25T01:43:00;98051.47;;;6.20;80.08
73338;BME280;61575;49.908;35.556;2024-03-25T01:46:01;98048.63;;;6.21;79.89
73338;BME280;61575;49.908;35.556;2024-03-25T01:49:03;98054.97;;;6.20;79.82
73338;BME280;61575;49.908;35.556;2024-03-25T01:52:04;98055.66;;;6.14;80.08
73338;BME280;61575;49.908;35.556;2024-03-25T01:55:11;98054.00;;;6.13;80.37
73338;BME280;61575;49.908;35.556;2024-03-25T01:58:15;98050.88;;;6.10;80.87
73338;BME280;61575;49.908;35.556;2024-03-25T02:01:18;98052.72;;;6.09;80.81
73338;BME280;61575;49.908;35.556;2024-03-25T02:04:19;98049.22;;;6.09;80.81
73338;BME280;61575;49.908;35.556;2024-03-25T02:07:20;98045.91;;;6.07;80.96
73338;BME280;61575;49.908;35.556;2024-03-25T02:10:22;98035.22;;;6.07;81.00
73338;BME280;61575;49.908;35.556;2024-03-25T02:13:23;98039.09;;;6.04;81.04
73338;BME280;61575;49.908;35.556;2024-03-25T02:16:24;98040.09;;;6.03;81.16
73338;BME280;61575;49.908;35.556;2024-03-25T02:19:26;98031.09;;;6.04;80.75
73338;BME280;61575;49.908;35.556;2024-03-25T02:22:27;98038.06;;;6.05;81.17
73338;BME280;61575;49.908;35.556;2024-03-25T02:25:31;98031.91;;;6.04;80.87
73338;BME280;61575;49.908;35.556;2024-03-25T02:28:33;98039.56;;;6.08;81.10
73338;BME280;61575;49.908;35.556;2024-03-25T02:31:34;98037.06;;;6.06;80.89
73338;BME280;61575;49.908;35.556;2024-03-25T02:34:44;98035.59;;;6.03;80.96
73338;BME280;61575;49.908;35.556;2024-03-25T02:37:45;98042.59;;;6.04;80.98
73338;BME280;61575;49.908;35.556;2024-03-25T02:40:46;98039.25;;;6.02;80.88
73338;BME280;61575;49.908;35.556;2024-03-25T02:43:48;98044.13;;;5.99;80.92
73338;BME280;61575;49.908;35.556;2024-03-25T02:46:49;98042.47;;;5.98;81.13
73338;BME280;61575;49.908;35.556;2024-03-25T02:49:50;98039.97;;;5.96;81.26
73338;BME280;61575;49.908;35.556;2024-03-25T02:52:52;98040.97;;;5.95;81.13
73338;BME280;61575;49.908;35.556;2024-03-25T02:55:53;98040.84;;;5.89;81.41
73338;BME280;61575;49.908;35.556;2024-03-25T02:58:54;98047.84;;;5.90;81.16
73338;BME280;61575;49.908;35.556;2024-03-25T03:01:55;98052.88;;;5.85;81.44
73338;BME280;61575;49.908;35.556;2024-03-25T03:04:56;98052.38;;;5.81;81.34
73338;BME280;61575;49.908;35.556;2024-03-25T03:07:57;98055.75;;;5.75;81.63
73338;BME280;61575;49.908;35.556;2024-03-25T03:10:58;98054.97;;;5.66;81.81
73338;BME280;61575;49.908;35.556;2024-03-25T03:13:59;98059.50;;;5.58;82.21
73338;BME280;61575;49.908;35.556;2024-03-25T03:17:00;98068.50;;;5.57;82.29
73338;BME280;61575;49.908;35.556;2024-03-25T03:20:06;98059.06;;;5.46;83.12
73338;BME280;61575;49.908;35.556;2024-03-25T03:23:07;98064.59;;;5.36;83.21
73338;BME280;61575;49.908;35.556;2024-03-25T03:26:08;98068.59;;;5.32;83.63
73338;BME280;61575;49.908;35.556;2024-03-25T03:29:10;98069.47;;;5.25;84.04
73338;BME280;61575;49.908;35.556;2024-03-25T03:32:11;98068.13;;;5.21;84.11
73338;BME280;61575;49.908;35.556;2024-03-25T03:35:12;98066.31;;;5.21;84.46
73338;BME280;61575;49.908;35.556;2024-03-25T03:38:12;98076.78;;;5.23;84.34
73338;BME280;61575;49.908;35.556;2024-03-25T03:41:13;98077.44;;;5.25;84.18
73338;BME280;61575;49.908;35.556;2024-03-25T03:44:14;98075.78;;;5.24;84.08
73338;BME280;61575;49.908;35.556;2024-03-25T03:47:16;98073.28;;;5.22;84.00
73338;BME280;61575;49.908;35.556;2024-03-25T03:50:17;98081.13;;;5.16;84.46
73338;BME280;61575;49.908;35.556;2024-03-25T03:53:18;98078.16;;;5.11;84.73
73338;BME280;61575;49.908;35.556;2024-03-25T03:56:19;98076.00;;;5.06;84.63
73338;BME280;61575;49.908;35.556;2024-03-25T03:59:19;98081.16;;;5.07;84.67
73338;BME280;61575;49.908;35.556;2024-03-25T04:02:20;98076.69;;;5.00;84.74
73338;BME280;61575;49.908;35.556;2024-03-25T04:05:21;98076.53;;;4.93;85.33
73338;BME280;61575;49.908;35.556;2024-03-25T04:08:22;98081.34;;;4.90;85.50
73338;BME280;61575;49.908;35.556;2024-03-25T04:11:23;98075.19;;;4.89;85.58
73338;BME280;61575;49.908;35.556;2024-03-25T04:14:24;98085.00;;;4.89;85.45
73338;BME280;61575;49.908;35.556;2024-03-25T04:17:25;98081.88;;;4.85;85.61
73338;BME280;61575;49.908;35.556;2024-03-25T04:20:27;98098.66;;;4.86;85.71
73338;BME280;61575;49.908;35.556;2024-03-25T04:23:31;98094.50;;;4.83;85.67
73338;BME280;61575;49.908;35.556;2024-03-25T04:26:32;98080.84;;;4.78;85.99
73338;BME280;61575;49.908;35.556;2024-03-25T04:29:33;98070.38;;;4.76;86.07
73338;BME280;61575;49.908;35.556;2024-03-25T04:32:34;98067.72;;;4.76;86.13
73338;BME280;61575;49.908;35.556;2024-03-25T04:35:36;98065.22;;;4.75;86.42
73338;BME280;61575;49.908;35.556;2024-03-25T04:38:37;98076.19;;;4.72;86.55
73338;BME280;61575;49.908;35.556;2024-03-25T04:41:38;98078.34;;;4.68;86.77
73338;BME280;61575;49.908;35.556;2024-03-25T04:44:39;98082.19;;;4.66;87.15
73338;BME280;61575;49.908;35.556;2024-03-25T04:47:40;98086.00;;;4.71;86.54
73338;BME280;61575;49.908;35.556;2024-03-25T04:50:41;98081.50;;;4.72;86.69
73338;BME280;61575;49.908;35.556;2024-03-25T04:53:42;98075.38;;;4.71;86.91
73338;BME280;61575;49.908;35.556;2024-03-25T04:56:43;98075.53;;;4.70;86.73
73338;BME280;61575;49.908;35.556;2024-03-25T04:59:45;98081.03;;;4.68;86.84
73338;BME280;61575;49.908;35.556;2024-03-25T05:02:46;98080.69;;;4.71;86.91
73338;BME280;61575;49.908;35.556;2024-03-25T05:05:47;98086.84;;;4.64;87.14
73338;BME280;61575;49.908;35.556;2024-03-25T05:08:48;98083.69;;;4.60;87.04
73338;BME280;61575;49.908;35.556;2024-03-25T05:11:49;98072.88;;;4.54;87.90
73338;BME280;61575;49.908;35.556;2024-03-25T05:14:49;98079.38;;;4.51;88.02
73338;BME280;61575;49.908;35.556;2024-03-25T05:17:50;98081.03;;;4.52;87.88
73338;BME280;61575;49.908;35.556;2024-03-25T05:20:51;98078.22;;;4.54;88.04
73338;BME280;61575;49.908;35.556;2024-03-25T05:23:52;98083.19;;;4.57;87.95
73338;BME280;61575;49.908;35.556;2024-03-25T05:26:53;98089.34;;;4.57;87.78
73338;BME280;61575;49.908;35.556;2024-03-25T05:29:54;98088.34;;;4.58;87.54
73338;BME280;61575;49.908;35.556;2024-03-25T05:32:55;98099.97;;;4.57;88.00
73338;BME280;61575;49.908;35.556;2024-03-25T05:35:56;98097.66;;;4.62;87.99
73338;BME280;61575;49.908;35.556;2024-03-25T05:38:57;98105.78;;;4.69;87.74
73338;BME280;61575;49.908;35.556;2024-03-25T05:41:58;98115.09;;;4.73;87.30
73338;BME280;61575;49.908;35.556;2024-03-25T05:44:59;98121.41;;;4.72;87.54
73338;BME280;61575;49.908;35.556;2024-03-25T05:48:00;98115.44;;;4.70;88.14
73338;BME280;61575;49.908;35.556;2024-03-25T05:51:04;98121.41;;;4.72;88.12
73338;BME280;61575;49.908;35.556;2024-03-25T05:54:06;98112.44;;;4.81;87.75
73338;BME280;61575;49.908;35.556;2024-03-25T05:57:07;98102.78;;;4.72;89.09
73338;BME280;61575;49.908;35.556;2024-03-25T06:00:08;98105.47;;;4.80;88.60
73338;BME280;61575;49.908;35.556;2024-03-25T06:03:15;98107.78;;;4.91;88.43
73338;BME280;61575;49.908;35.556;2024-03-25T06:06:16;98115.91;;;4.98;88.54
73338;BME280;61575;49.908;35.556;2024-03-25T06:09:18;98122.56;;;5.10;88.43
73338;BME280;61575;49.908;35.556;2024-03-25T06:12:19;98116.38;;;5.18;88.15
73338;BME280;61575;49.908;35.556;2024-03-25T06:15:20;98124.66;;;5.31;87.83
73338;BME280;61575;49.908;35.556;2024-03-25T06:18:20;98121.31;;;5.37;87.50
73338;BME280;61575;49.908;35.556;2024-03-25T06:21:21;98119.81;;;5.43;87.67
73338;BME280;61575;49.908;35.556;2024-03-25T06:24:24;98116.63;;;5.47;87.52
73338;BME280;61575;49.908;35.556;2024-03-25T06:27:25;98125.94;;;5.51;87.37
73338;BME280;61575;49.908;35.556;2024-03-25T06:30:26;98123.25;;;5.59;87.17
73338;BME280;61575;49.908;35.556;2024-03-25T06:33:45;98121.59;;;5.58;87.07
73338;BME280;61575;49.908;35.556;2024-03-25T06:37:04;98119.91;;;5.57;87.20
73338;BME280;61575;49.908;35.556;2024-03-25T06:40:06;98112.09;;;5.56;87.52
73338;BME280;61575;49.908;35.556;2024-03-25T06:43:07;98110.91;;;5.66;87.12
73338;BME280;61575;49.908;35.556;2024-03-25T06:46:08;98120.72;;;5.66;87.31
73338;BME280;61575;49.908;35.556;2024-03-25T06:49:09;98115.53;;;5.72;87.18
73338;BME280;61575;49.908;35.556;2024-03-25T06:52:10;98107.69;;;5.79;87.15
73338;BME280;61575;49.908;35.556;2024-03-25T06:55:11;98123.31;;;5.82;86.91
73338;BME280;61575;49.908;35.556;2024-03-25T06:58:12;98127.94;;;5.88;86.74
73338;BME280;61575;49.908;35.556;2024-03-25T07:01:13;98120.38;;;6.00;86.43
73338;BME280;61575;49.908;35.556;2024-03-25T07:04:15;98121.69;;;6.04;86.60
73338;BME280;61575;49.908;35.556;2024-03-25T07:07:16;98130.00;;;6.09;86.49
73338;BME280;61575;49.908;35.556;2024-03-25T07:10:17;98133.63;;;6.16;86.31
73338;BME280;61575;49.908;35.556;2024-03-25T07:13:18;98140.03;;;6.30;86.53
73338;BME280;61575;49.908;35.556;2024-03-25T07:16:19;98144.13;;;6.41;86.31
73338;BME280;61575;49.908;35.556;2024-03-25T07:19:20;98150.13;;;6.43;86.13
73338;BME280;61575;49.908;35.556;2024-03-25T07:22:21;98147.16;;;6.60;85.86
73338;BME280;61575;49.908;35.556;2024-03-25T07:25:25;98158.00;;;6.82;85.41
73338;BME280;61575;49.908;35.556;2024-03-25T07:28:26;98155.44;;;6.88;85.15
73338;BME280;61575;49.908;35.556;2024-03-25T07:31:27;98154.53;;;6.96;84.81
73338;BME280;61575;49.908;35.556;2024-03-25T07:34:28;98153.91;;;7.09;84.36
73338;BME280;61575;49.908;35.556;2024-03-25T07:37:29;98159.38;;;7.15;84.12
73338;BME280;61575;49.908;35.556;2024-03-25T07:40:30;98162.38;;;7.35;84.11
73338;BME280;61575;49.908;35.556;2024-03-25T07:43:31;98156.59;;;7.46;83.58
73338;BME280;61575;49.908;35.556;2024-03-25T07:46:32;98150.13;;;7.70;82.91
73338;BME280;61575;49.908;35.556;2024-03-25T07:49:33;98152.44;;;7.88;82.53
73338;BME280;61575;49.908;35.556;2024-03-25T07:52:34;98152.03;;;8.06;81.64
73338;BME280;61575;49.908;35.556;2024-03-25T07:55:40;98152.63;;;8.22;81.09
73338;BME280;61575;49.908;35.556;2024-03-25T07:58:41;98161.50;;;8.23;80.65
73338;BME280;61575;49.908;35.556;2024-03-25T08:01:42;98156.03;;;8.31;80.29
73338;BME280;61575;49.908;35.556;2024-03-25T08:04:45;98149.63;;;8.47;79.61
73338;BME280;61575;49.908;35.556;2024-03-25T08:07:46;98150.66;;;8.67;79.37
73338;BME280;61575;49.908;35.556;2024-03-25T08:10:47;98148.84;;;8.95;78.51
73338;BME280;61575;49.908;35.556;2024-03-25T08:13:48;98159.31;;;9.12;77.19
73338;BME280;61575;49.908;35.556;2024-03-25T08:16:49;98150.34;;;9.26;76.80
73338;BME280;61575;49.908;35.556;2024-03-25T08:19:50;98152.50;;;9.44;76.03
73338;BME280;61575;49.908;35.556;2024-03-25T08:22:51;98145.16;;;9.52;75.32
73338;BME280;61575;49.908;35.556;2024-03-25T08:25:51;98140.97;;;9.43;73.90
73338;BME280;61575;49.908;35.556;2024-03-25T08:28:52;98142.66;;;9.51;74.65
73338;BME280;61575;49.908;35.556;2024-03-25T08:31:53;98140.75;;;9.45;73.70
73338;BME280;61575;49.908;35.556;2024-03-25T08:34:54;98140.28;;;9.28;73.84
73338;BME280;61575;49.908;35.556;2024-03-25T08:37:55;98137.97;;;9.25;73.90
73338;BME280;61575;49.908;35.556;2024-03-25T08:40:56;98134.72;;;9.30;74.24
73338;BME280;61575;49.908;35.556;2024-03-25T08:43:57;98133.22;;;9.20;74.08
73338;BME280;61575;49.908;35.556;2024-03-25T08:46:58;98134.38;;;9.11;74.04
73338;BME280;61575;49.908;35.556;2024-03-25T08:49:59;98150.25;;;8.91;74.44
73338;BME280;61575;49.908;35.556;2024-03-25T08:53:00;98140.69;;;8.82;74.71
73338;BME280;61575;49.908;35.556;2024-03-25T08:56:01;98146.56;;;8.92;74.95
73338;BME280;61575;49.908;35.556;2024-03-25T08:59:02;98153.13;;;8.90;74.74
73338;BME280;61575;49.908;35.556;2024-03-25T09:02:06;98160.81;;;9.00;74.54
73338;BME280;61575;49.908;35.556;2024-03-25T09:05:08;98153.94;;;9.12;74.18
73338;BME280;61575;49.908;35.556;2024-03-25T09:08:10;98153.56;;;9.15;73.79
73338;BME280;61575;49.908;35.556;2024-03-25T09:11:12;98156.88;;;9.17;73.84
73338;BME280;61575;49.908;35.556;2024-03-25T09:14:13;98162.22;;;9.17;73.16
73338;BME280;61575;49.908;35.556;2024-03-25T09:17:14;98155.09;;;9.31;72.73
73338;BME280;61575;49.908;35.556;2024-03-25T09:20:16;98146.59;;;9.55;72.80
73338;BME280;61575;49.908;35.556;2024-03-25T09:23:18;98142.19;;;9.75;72.28
73338;BME280;61575;49.908;35.556;2024-03-25T09:26:19;98136.09;;;9.94;71.77
73338;BME280;61575;49.908;35.556;2024-03-25T09:32:57;98145.72;;;9.82;70.10
73338;BME280;61575;49.908;35.556;2024-03-25T09:35:58;98130.19;;;10.12;69.79
73338;BME280;61575;49.908;35.556;2024-03-25T09:38:59;98134.34;;;10.21;68.19
73338;BME280;61575;49.908;35.556;2024-03-25T09:42:01;98122.56;;;10.22;67.72
73338;BME280;61575;49.908;35.556;2024-03-25T09:45:03;98124.03;;;10.25;66.71
73338;BME280;61575;49.908;35.556;2024-03-25T09:48:07;98124.44;;;10.22;66.13
73338;BME280;61575;49.908;35.556;2024-03-25T09:51:09;98120.28;;;10.19;66.21
73338;BME280;61575;49.908;35.556;2024-03-25T09:54:10;98115.38;;;10.30;66.39
73338;BME280;61575;49.908;35.556;2024-03-25T09:57:12;98118.47;;;10.26;66.04
73338;BME280;61575;49.908;35.556;2024-03-25T10:00:13;98111.25;;;10.34;66.02
73338;BME280;61575;49.908;35.556;2024-03-25T10:03:17;98109.66;;;10.52;65.77
73338;BME280;61575;49.908;35.556;2024-03-25T10:06:18;98110.47;;;10.53;64.58
73338;BME280;61575;49.908;35.556;2024-03-25T10:09:20;98093.13;;;10.55;64.52
73338;BME280;61575;49.908;35.556;2024-03-25T10:12:21;98101.66;;;10.72;64.42
73338;BME280;61575;49.908;35.556;2024-03-25T10:15:22;98101.44;;;10.80;64.22
73338;BME280;61575;49.908;35.556;2024-03-25T10:18:24;98098.56;;;10.82;63.15
73338;BME280;61575;49.908;35.556;2024-03-25T10:21:25;98094.00;;;10.96;63.06
73338;BME280;61575;49.908;35.556;2024-03-25T10:24:26;98085.91;;;11.29;62.85
73338;BME280;61575;49.908;35.556;2024-03-25T10:27:27;98087.72;;;11.61;61.50
73338;BME280;61575;49.908;35.556;2024-03-25T10:30:29;98081.44;;;11.80;60.72
73338;BME280;61575;49.908;35.556;2024-03-25T10:33:30;98080.94;;;11.97;59.31
73338;BME280;61575;49.908;35.556;2024-03-25T10:36:31;98076.78;;;12.07;59.10
73338;BME280;61575;49.908;35.556;2024-03-25T10:39:34;98070.56;;;12.13;59.19
73338;BME280;61575;49.908;35.556;2024-03-25T10:42:41;98072.59;;;12.18;58.71
73338;BME280;61575;49.908;35.556;2024-03-25T10:45:46;98068.72;;;12.01;58.42
73338;BME280;61575;49.908;35.556;2024-03-25T10:49:01;98061.06;;;12.04;58.27
73338;BME280;61575;49.908;35.556;2024-03-25T10:52:05;98059.03;;;11.93;58.71
73338;BME280;61575;49.908;35.556;2024-03-25T10:55:07;98059.50;;;11.83;58.49
73338;BME280;61575;49.908;35.556;2024-03-25T10:58:10;98051.03;;;11.80;58.26
73338;BME280;61575;49.908;35.556;2024-03-25T11:01:12;98047.66;;;11.91;57.89
73338;BME280;61575;49.908;35.556;2024-03-25T11:04:14;98048.75;;;11.77;56.21
73338;BME280;61575;49.908;35.556;2024-03-25T11:07:15;98059.53;;;11.70;56.05
73338;BME280;61575;49.908;35.556;2024-03-25T11:10:16;98047.53;;;11.73;55.83
73338;BME280;61575;49.908;35.556;2024-03-25T11:13:18;98047.72;;;11.78;56.69
73338;BME280;61575;49.908;35.556;2024-03-25T11:16:31;98040.06;;;11.81;55.32
73338;BME280;61575;49.908;35.556;2024-03-25T11:19:33;98040.88;;;11.82;55.46
73338;BME280;61575;49.908;35.556;2024-03-25T11:22:34;98034.84;;;11.86;55.49
73338;BME280;61575;49.908;35.556;2024-03-25T11:25:34;98044.34;;;11.96;54.87
73338;BME280;61575;49.908;35.556;2024-03-25T11:28:36;98037.91;;;11.97;55.11
73338;BME280;61575;49.908;35.556;2024-03-25T11:31:39;98036.09;;;12.29;55.94
73338;BME280;61575;49.908;35.556;2024-03-25T11:34:49;98034.31;;;12.47;54.54
73338;BME280;61575;49.908;35.556;2024-03-25T11:37:50;98036.84;;;12.42;54.91
73338;BME280;61575;49.908;35.556;2024-03-25T11:40:52;98032.78;;;12.58;54.95
73338;BME280;61575;49.908;35.556;2024-03-25T11:43:55;98026.50;;;12.39;52.96
73338;BME280;61575;49.908;35.556;2024-03-25T11:46:56;98025.56;;;12.52;54.07
73338;BME280;61575;49.908;35.556;2024-03-25T11:49:57;98025.97;;;12.56;54.22
73338;BME280;61575;49.908;35.556;2024-03-25T11:52:58;98014.31;;;12.62;54.67
73338;BME280;61575;49.908;35.556;2024-03-25T11:55:59;98024.66;;;12.65;54.48
73338;BME280;61575;49.908;35.556;2024-03-25T11:59:00;98025.38;;;12.54;53.66
73338;BME280;61575;49.908;35.556;2024-03-25T12:02:06;98020.84;;;12.47;53.25
73338;BME280;61575;49.908;35.556;2024-03-25T12:05:08;98035.22;;;12.35;53.46
73338;BME280;61575;49.908;35.556;2024-03-25T12:08:09;98025.19;;;12.17;54.08
73338;BME280;61575;49.908;35.556;2024-03-25T12:11:11;98029.75;;;12.16;54.07
73338;BME280;61575;49.908;35.556;2024-03-25T12:14:19;98023.56;;;12.16;54.57
73338;BME280;61575;49.908;35.556;2024-03-25T12:17:20;98022.91;;;12.21;54.66
73338;BME280;61575;49.908;35.556;2024-03-25T12:20:21;98025.34;;;12.29;54.61
73338;BME280;61575;49.908;35.556;2024-03-25T12:23:31;98019.13;;;12.28;54.45
73338;BME280;61575;49.908;35.556;2024-03-25T12:26:32;98012.66;;;12.36;54.47
73338;BME280;61575;49.908;35.556;2024-03-25T12:29:34;98006.56;;;12.47;54.63
73338;BME280;61575;49.908;35.556;2024-03-25T12:32:43;98016.13;;;12.43;53.62
73338;BME280;61575;49.908;35.556;2024-03-25T12:35:48;98016.34;;;12.66;54.19
73338;BME280;61575;49.908;35.556;2024-03-25T12:38:57;98005.03;;;12.82;54.15
73338;BME280;61575;49.908;35.556;2024-03-25T12:42:04;98001.94;;;12.79;53.15
73338;BME280;61575;49.908;35.556;2024-03-25T12:45:06;98006.22;;;12.87;53.68
73338;BME280;61575;49.908;35.556;2024-03-25T12:48:07;98010.56;;;12.88;53.63
73338;BME280;61575;49.908;35.556;2024-03-25T12:51:15;98007.72;;;12.82;53.21
73338;BME280;61575;49.908;35.556;2024-03-25T12:54:16;98001.88;;;12.86;53.70
73338;BME280;61575;49.908;35.556;2024-03-25T12:57:17;98001.88;;;12.86;53.24
73338;BME280;61575;49.908;35.556;2024-03-25T13:00:19;97996.63;;;12.72;53.13
73338;BME280;61575;49.908;35.556;2024-03-25T13:03:20;97991.28;;;12.66;53.20
73338;BME280;61575;49.908;35.556;2024-03-25T13:06:21;97990.75;;;12.57;53.27
73338;BME280;61575;49.908;35.556;2024-03-25T13:09:22;97988.59;;;12.66;53.30
73338;BME280;61575;49.908;35.556;2024-03-25T13:12:23;97985.47;;;12.69;53.22
73338;BME280;61575;49.908;35.556;2024-03-25T13:15:24;97983.38;;;12.71;52.88
73338;BME280;61575;49.908;35.556;2024-03-25T13:18:25;97976.72;;;12.73;52.87
73338;BME280;61575;49.908;35.556;2024-03-25T13:21:26;97977.47;;;12.80;53.19
73338;BME280;61575;49.908;35.556;2024-03-25T13:24:27;97975.53;;;12.88;53.35
73338;BME280;61575;49.908;35.556;2024-03-25T13:27:28;97968.66;;;12.92;52.78
73338;BME280;61575;49.908;35.556;2024-03-25T13:30:31;97968.56;;;12.80;52.45
73338;BME280;61575;49.908;35.556;2024-03-25T13:33:32;97962.59;;;12.78;52.11
73338;BME280;61575;49.908;35.556;2024-03-25T13:36:33;97958.47;;;12.75;52.16
73338;BME280;61575;49.908;35.556;2024-03-25T13:39:34;97957.41;;;12.76;52.12
73338;BME280;61575;49.908;35.556;2024-03-25T13:42:35;97954.56;;;12.71;51.72
73338;BME280;61575;49.908;35.556;2024-03-25T13:45:46;97952.38;;;12.62;49.66
73338;BME280;61575;49.908;35.556;2024-03-25T13:48:47;97948.09;;;12.54;49.60
73338;BME280;61575;49.908;35.556;2024-03-25T13:51:51;97940.28;;;12.46;48.77
73338;BME280;61575;49.908;35.556;2024-03-25T13:54:56;97939.59;;;12.32;48.79
73338;BME280;61575;49.908;35.556;2024-03-25T13:57:57;97938.75;;;12.32;48.71
73338;BME280;61575;49.908;35.556;2024-03-25T14:00:58;97939.63;;;12.26;48.68
73338;BME280;61575;49.908;35.556;2024-03-25T14:03:59;97933.88;;;12.22;48.69
73338;BME280;61575;49.908;35.556;2024-03-25T14:07:00;97936.81;;;12.14;48.92
73338;BME280;61575;49.908;35.556;2024-03-25T14:10:01;97938.47;;;12.15;48.91
73338;BME280;61575;49.908;35.556;2024-03-25T14:13:04;97940.16;;;12.09;48.80
73338;BME280;61575;49.908;35.556;2024-03-25T14:16:06;97935.63;;;12.03;48.93
73338;BME280;61575;49.908;35.556;2024-03-25T14:19:07;97934.47;;;11.93;49.19
73338;BME280;61575;49.908;35.556;2024-03-25T14:22:08;97935.94;;;11.88;48.95
73338;BME280;61575;49.908;35.556;2024-03-25T14:25:09;97931.59;;;11.87;49.08
73338;BME280;61575;49.908;35.556;2024-03-25T14:28:10;97930.78;;;11.87;49.33
73338;BME280;61575;49.908;35.556;2024-03-25T14:31:11;97925.00;;;11.83;49.46
73338;BME280;61575;49.908;35.556;2024-03-25T14:34:12;97923.78;;;11.79;49.55
73338;BME280;61575;49.908;35.556;2024-03-25T14:37:14;97918.88;;;11.70;49.91
73338;BME280;61575;49.908;35.556;2024-03-25T14:40:15;97916.63;;;11.67;49.94
73338;BME280;61575;49.908;35.556;2024-03-25T14:43:19;97921.63;;;11.63;50.04
73338;BME280;61575;49.908;35.556;2024-03-25T14:46:20;97919.78;;;11.57;50.16
73338;BME280;61575;49.908;35.556;2024-03-25T14:49:21;97918.16;;;11.49;50.38
73338;BME280;61575;49.908;35.556;2024-03-25T14:52:23;97913.22;;;11.46;50.39
73338;BME280;61575;49.908;35.556;2024-03-25T14:55:23;97915.94;;;11.40;50.55
73338;BME280;61575;49.908;35.556;2024-03-25T14:58:25;97918.22;;;11.36;50.63
73338;BME280;61575;49.908;35.556;2024-03-25T15:01:25;97916.19;;;11.32;50.76
73338;BME280;61575;49.908;35.556;2024-03-25T15:04:27;97908.38;;;11.23;51.09
73338;BME280;61575;49.908;35.556;2024-03-25T15:07:28;97913.56;;;11.18;51.12
73338;BME280;61575;49.908;35.556;2024-03-25T15:10:33;97913.59;;;11.12;51.53
73338;BME280;61575;49.908;35.556;2024-03-25T15:13:35;97908.44;;;11.04;51.91
73338;BME280;61575;49.908;35.556;2024-03-25T15:16:36;97909.09;;;10.93;52.18
73338;BME280;61575;49.908;35.556;2024-03-25T15:19:37;97907.69;;;10.83;52.41
73338;BME280;61575;49.908;35.556;2024-03-25T15:22:38;97909.78;;;10.75;52.66
73338;BME280;61575;49.908;35.556;2024-03-25T15:25:39;97909.13;;;10.66;52.97
73338;BME280;61575;49.908;35.556;2024-03-25T15:28:40;97900.91;;;10.54;53.01
73338;BME280;61575;49.908;35.556;2024-03-25T15:31:41;97896.56;;;10.47;53.14
73338;BME280;61575;49.908;35.556;2024-03-25T15:34:42;97893.50;;;10.37;53.41
73338;BME280;61575;49.908;35.556;2024-03-25T15:37:43;97899.06;;;10.29;53.31
73338;BME280;61575;49.908;35.556;2024-03-25T15:40:44;97900.13;;;10.21;53.60
73338;BME280;61575;49.908;35.556;2024-03-25T15:43:52;97902.19;;;10.12;53.49
73338;BME280;61575;49.908;35.556;2024-03-25T15:46:53;97896.81;;;10.06;53.98
73338;BME280;61575;49.908;35.556;2024-03-25T15:49:54;97896.81;;;9.99;53.98
73338;BME280;61575;49.908;35.556;2024-03-25T15:52:56;97897.44;;;9.94;54.04
73338;BME280;61575;49.908;35.556;2024-03-25T15:55:57;97901.97;;;9.87;54.41
73338;BME280;61575;49.908;35.556;2024-03-25T15:58:58;97892.25;;;9.80;54.62